sensor_id;sensor_type;location;lat;lon;timestamp;temperature;humidity
9668;DHT22;4872;48.316;10.650;2022-10-04T04:13:22;4.80;99.90
9668;DHT22;4872;48.316;10.650;2022-10-04T04:15:50;4.70;99.90
9668;DHT22;4872;48.316;10.650;2022-10-04T04:18:21;4.70;99.90
9668;DHT22;4872;48.316;10.650;2022-10-04T04:20:49;4.60;99.90
9668;DHT22;4872;48.316;10.650;2022-10-04T04:23:22;4.70;99.90
9668;DHT22;4872;48.316;10.650;2022-10-04T04:25:53;4.60;99.90
9668;DHT22;4872;48.316;10.650;2022-10-04T04:28:26;4.70;99.90
9668;DHT22;4872;48.316;10.650;2022-10-04T04:30:56;4.70;99.90
9668;DHT22;4872;48.316;10.650;2022-10-04T04:33:27;4.60;99.90
9668;DHT22;4872;48.316;10.650;2022-10-04T04:36:01;4.60;99.90
9668;DHT22;4872;48.316;10.650;2022-10-04T04:38:28;4.80;99.90
9668;DHT22;4872;48.316;10.650;2022-10-04T04:40:56;5.10;99.90
9668;DHT22;4872;48.316;10.650;2022-10-04T04:43:34;5.30;99.90
9668;DHT22;4872;48.316;10.650;2022-10-04T04:46:01;5.40;99.90
9668;DHT22;4872;48.316;10.650;2022-10-04T04:48:34;5.50;99.90
9668;DHT22;4872;48.316;10.650;2022-10-04T04:51:02;5.60;99.90
9668;DHT22;4872;48.316;10.650;2022-10-04T04:53:30;5.50;99.90
9668;DHT22;4872;48.316;10.650;2022-10-04T04:55:59;5.30;99.90
9668;DHT22;4872;48.316;10.650;2022-10-04T04:58:28;5.20;99.90
9668;DHT22;4872;48.316;10.650;2022-10-04T05:01:01;5.00;99.90
9668;DHT22;4872;48.316;10.650;2022-10-04T05:03:29;4.90;99.90
9668;DHT22;4872;48.316;10.650;2022-10-04T05:05:57;4.80;99.90
9668;DHT22;4872;48.316;10.650;2022-10-04T05:08:28;4.70;99.90
9668;DHT22;4872;48.316;10.650;2022-10-04T05:11:02;4.60;99.90
9668;DHT22;4872;48.316;10.650;2022-10-04T05:13:34;4.60;99.90
9668;DHT22;4872;48.316;10.650;2022-10-04T05:16:09;4.70;99.90
9668;DHT22;4872;48.316;10.650;2022-10-04T05:18:37;4.60;99.90
9668;DHT22;4872;48.316;10.650;2022-10-04T05:21:06;4.60;99.90
9668;DHT22;4872;48.316;10.650;2022-10-04T05:23:34;4.60;99.90
9668;DHT22;4872;48.316;10.650;2022-10-04T05:26:01;4.60;99.90
9668;DHT22;4872;48.316;10.650;2022-10-04T05:28:29;4.60;99.90
9668;DHT22;4872;48.316;10.650;2022-10-04T05:31:16;4.60;99.90
9668;DHT22;4872;48.316;10.650;2022-10-04T05:33:46;4.60;99.90
9668;DHT22;4872;48.316;10.650;2022-10-04T05:36:37;4.60;99.90
9668;DHT22;4872;48.316;10.650;2022-10-04T05:39:12;4.60;99.90
9668;DHT22;4872;48.316;10.650;2022-10-04T05:41:48;4.60;99.90
9668;DHT22;4872;48.316;10.650;2022-10-04T05:44:22;4.50;99.90
9668;DHT22;4872;48.316;10.650;2022-10-04T05:46:52;4.50;99.90
9668;DHT22;4872;48.316;10.650;2022-10-04T05:49:21;4.40;99.90
9668;DHT22;4872;48.316;10.650;2022-10-04T05:51:52;4.40;99.90
9668;DHT22;4872;48.316;10.650;2022-10-04T05:54:22;4.30;99.90
9668;DHT22;4872;48.316;10.650;2022-10-04T05:57:14;4.30;99.90
9668;DHT22;4872;48.316;10.650;2022-10-04T06:00:07;4.30;99.90
9668;DHT22;4872;48.316;10.650;2022-10-04T06:02:56;4.30;99.90
9668;DHT22;4872;48.316;10.650;2022-10-04T06:05:29;4.30;99.90
9668;DHT22;4872;48.316;10.650;2022-10-04T06:08:03;4.40;99.90
9668;DHT22;4872;48.316;10.650;2022-10-04T06:11:04;4.50;99.90
9668;DHT22;4872;48.316;10.650;2022-10-04T06:13:58;4.60;99.90
9668;DHT22;4872;48.316;10.650;2022-10-04T06:16:38;4.70;99.90
9668;DHT22;4872;48.316;10.650;2022-10-04T06:22:11;4.80;99.90
9668;DHT22;4872;48.316;10.650;2022-10-04T06:24:41;4.90;99.90
9668;DHT22;4872;48.316;10.650;2022-10-04T06:27:13;5.00;99.90
9668;DHT22;4872;48.316;10.650;2022-10-04T06:29:43;5.10;99.90
9668;DHT22;4872;48.316;10.650;2022-10-04T06:32:39;5.30;99.90
9668;DHT22;4872;48.316;10.650;2022-10-04T06:41:23;5.60;99.90
9668;DHT22;4872;48.316;10.650;2022-10-04T06:44:07;5.70;99.90
9668;DHT22;4872;48.316;10.650;2022-10-04T06:46:42;5.70;99.90
9668;DHT22;4872;48.316;10.650;2022-10-04T06:49:37;5.90;99.90
9668;DHT22;4872;48.316;10.650;2022-10-04T06:55:26;6.00;99.90
9668;DHT22;4872;48.316;10.650;2022-10-04T06:58:23;6.10;99.90
9668;DHT22;4872;48.316;10.650;2022-10-04T07:00:57;6.30;99.90
9668;DHT22;4872;48.316;10.650;2022-10-04T07:03:28;6.50;99.90
9668;DHT22;4872;48.316;10.650;2022-10-04T07:06:01;6.60;99.90
9668;DHT22;4872;48.316;10.650;2022-10-04T07:08:35;6.70;99.90
9668;DHT22;4872;48.316;10.650;2022-10-04T07:11:11;6.60;99.90
9668;DHT22;4872;48.316;10.650;2022-10-04T07:13:50;6.80;99.90
9668;DHT22;4872;48.316;10.650;2022-10-04T07:16:29;6.90;99.90
9668;DHT22;4872;48.316;10.650;2022-10-04T07:19:06;7.00;99.90
9668;DHT22;4872;48.316;10.650;2022-10-04T07:21:38;7.00;99.90
9668;DHT22;4872;48.316;10.650;2022-10-04T07:24:11;7.00;99.90
9668;DHT22;4872;48.316;10.650;2022-10-04T07:26:45;7.00;99.90
9668;DHT22;4872;48.316;10.650;2022-10-04T07:29:16;7.00;99.90
9668;DHT22;4872;48.316;10.650;2022-10-04T07:31:50;7.10;99.90
9668;DHT22;4872;48.316;10.650;2022-10-04T07:34:22;7.00;99.90
9668;DHT22;4872;48.316;10.650;2022-10-04T07:36:52;7.10;99.90
9668;DHT22;4872;48.316;10.650;2022-10-04T07:39:24;7.20;99.90
9668;DHT22;4872;48.316;10.650;2022-10-04T07:41:53;7.20;99.90
9668;DHT22;4872;48.316;10.650;2022-10-04T07:44:29;7.30;99.90
9668;DHT22;4872;48.316;10.650;2022-10-04T07:47:01;7.50;99.90
9668;DHT22;4872;48.316;10.650;2022-10-04T07:49:36;7.60;99.90
9668;DHT22;4872;48.316;10.650;2022-10-04T07:52:31;7.80;99.90
9668;DHT22;4872;48.316;10.650;2022-10-04T07:55:15;7.80;99.90
9668;DHT22;4872;48.316;10.650;2022-10-04T07:57:49;7.90;99.90
9668;DHT22;4872;48.316;10.650;2022-10-04T08:00:21;7.90;99.90
9668;DHT22;4872;48.316;10.650;2022-10-04T08:03:03;7.90;99.90
9668;DHT22;4872;48.316;10.650;2022-10-04T08:05:37;8.10;99.90
9668;DHT22;4872;48.316;10.650;2022-10-04T08:08:21;8.00;99.90
9668;DHT22;4872;48.316;10.650;2022-10-04T08:11:06;8.10;99.90
9668;DHT22;4872;48.316;10.650;2022-10-04T08:13:43;8.10;99.90
9668;DHT22;4872;48.316;10.650;2022-10-04T08:16:20;8.20;99.90
9668;DHT22;4872;48.316;10.650;2022-10-04T08:19:00;8.00;99.90
9668;DHT22;4872;48.316;10.650;2022-10-04T08:21:38;7.90;99.90
9668;DHT22;4872;48.316;10.650;2022-10-04T08:24:15;7.70;99.90
9668;DHT22;4872;48.316;10.650;2022-10-04T08:26:52;7.90;99.90
9668;DHT22;4872;48.316;10.650;2022-10-04T08:29:31;7.80;99.90
9668;DHT22;4872;48.316;10.650;2022-10-04T08:32:22;7.90;99.90
9668;DHT22;4872;48.316;10.650;2022-10-04T08:35:08;8.00;99.90
9668;DHT22;4872;48.316;10.650;2022-10-04T08:37:49;8.20;99.90
9668;DHT22;4872;48.316;10.650;2022-10-04T08:40:42;8.40;99.90
9668;DHT22;4872;48.316;10.650;2022-10-04T08:43:55;8.60;99.90
9668;DHT22;4872;48.316;10.650;2022-10-04T08:49:55;8.80;99.90
9668;DHT22;4872;48.316;10.650;2022-10-04T08:53:02;8.90;99.90
9668;DHT22;4872;48.316;10.650;2022-10-04T08:58:38;9.20;99.90
9668;DHT22;4872;48.316;10.650;2022-10-04T09:01:37;9.40;99.90
9668;DHT22;4872;48.316;10.650;2022-10-04T09:04:35;9.60;99.90
9668;DHT22;4872;48.316;10.650;2022-10-04T09:07:20;9.70;99.90
9668;DHT22;4872;48.316;10.650;2022-10-04T09:10:28;9.90;99.90
9668;DHT22;4872;48.316;10.650;2022-10-04T09:13:11;10.10;99.90
9668;DHT22;4872;48.316;10.650;2022-10-04T09:15:50;10.20;99.90
9668;DHT22;4872;48.316;10.650;2022-10-04T09:18:22;10.40;99.90
9668;DHT22;4872;48.316;10.650;2022-10-04T09:20:56;10.50;99.90
9668;DHT22;4872;48.316;10.650;2022-10-04T09:23:48;10.50;99.90
9668;DHT22;4872;48.316;10.650;2022-10-04T09:26:23;10.70;99.90
9668;DHT22;4872;48.316;10.650;2022-10-04T09:29:15;10.80;99.90
9668;DHT22;4872;48.316;10.650;2022-10-04T09:32:03;10.90;99.90
9668;DHT22;4872;48.316;10.650;2022-10-04T09:34:50;11.20;99.90
9668;DHT22;4872;48.316;10.650;2022-10-04T09:37:46;11.20;99.90
9668;DHT22;4872;48.316;10.650;2022-10-04T09:43:59;11.50;99.90
9668;DHT22;4872;48.316;10.650;2022-10-04T09:46:48;11.60;99.90
9668;DHT22;4872;48.316;10.650;2022-10-04T09:49:28;11.70;99.90
9668;DHT22;4872;48.316;10.650;2022-10-04T09:52:16;11.80;99.90
9668;DHT22;4872;48.316;10.650;2022-10-04T09:57:52;12.10;99.90
9668;DHT22;4872;48.316;10.650;2022-10-04T10:00:22;12.20;99.90
9668;DHT22;4872;48.316;10.650;2022-10-04T10:06:12;12.40;99.90
9668;DHT22;4872;48.316;10.650;2022-10-04T10:08:58;12.50;99.90
9668;DHT22;4872;48.316;10.650;2022-10-04T10:11:36;12.50;99.90
9668;DHT22;4872;48.316;10.650;2022-10-04T10:14:52;12.50;99.90
9668;DHT22;4872;48.316;10.650;2022-10-04T10:17:30;12.50;99.90
9668;DHT22;4872;48.316;10.650;2022-10-04T10:20:32;12.60;99.90
9668;DHT22;4872;48.316;10.650;2022-10-04T10:23:24;12.70;99.90
9668;DHT22;4872;48.316;10.650;2022-10-04T10:26:12;12.70;99.90
9668;DHT22;4872;48.316;10.650;2022-10-04T10:29:32;12.80;99.90
9668;DHT22;4872;48.316;10.650;2022-10-04T10:32:23;12.90;99.90
9668;DHT22;4872;48.316;10.650;2022-10-04T10:35:23;13.10;99.90
9668;DHT22;4872;48.316;10.650;2022-10-04T10:38:07;13.20;99.90
9668;DHT22;4872;48.316;10.650;2022-10-04T10:41:03;13.40;99.90
9668;DHT22;4872;48.316;10.650;2022-10-04T10:43:43;13.50;99.90
9668;DHT22;4872;48.316;10.650;2022-10-04T10:46:25;13.70;99.90
9668;DHT22;4872;48.316;10.650;2022-10-04T10:49:32;13.90;99.90
9668;DHT22;4872;48.316;10.650;2022-10-04T10:52:32;14.00;99.90
9668;DHT22;4872;48.316;10.650;2022-10-04T10:55:19;14.10;99.90
9668;DHT22;4872;48.316;10.650;2022-10-04T10:58:40;14.20;99.90
9668;DHT22;4872;48.316;10.650;2022-10-04T11:01:29;14.20;99.90
9668;DHT22;4872;48.316;10.650;2022-10-04T11:07:42;14.40;99.90
9668;DHT22;4872;48.316;10.650;2022-10-04T11:19:53;14.60;99.90
9668;DHT22;4872;48.316;10.650;2022-10-04T11:22:54;14.70;99.90
9668;DHT22;4872;48.316;10.650;2022-10-04T11:25:58;14.80;99.90
9668;DHT22;4872;48.316;10.650;2022-10-04T11:28:36;14.80;99.90
9668;DHT22;4872;48.316;10.650;2022-10-04T11:34:26;15.00;99.90
9668;DHT22;4872;48.316;10.650;2022-10-04T11:37:08;15.20;99.90
9668;DHT22;4872;48.316;10.650;2022-10-04T11:39:59;15.30;99.90
9668;DHT22;4872;48.316;10.650;2022-10-04T11:42:42;15.50;99.90
9668;DHT22;4872;48.316;10.650;2022-10-04T11:45:27;15.70;99.90
9668;DHT22;4872;48.316;10.650;2022-10-04T11:48:10;15.80;99.90
9668;DHT22;4872;48.316;10.650;2022-10-04T11:53:51;16.20;99.90
9668;DHT22;4872;48.316;10.650;2022-10-04T11:56:42;16.50;99.90
9668;DHT22;4872;48.316;10.650;2022-10-04T11:59:20;16.60;99.90
9668;DHT22;4872;48.316;10.650;2022-10-04T12:02:16;16.70;99.90
9668;DHT22;4872;48.316;10.650;2022-10-04T12:05:01;16.90;99.90
9668;DHT22;4872;48.316;10.650;2022-10-04T12:07:44;17.20;99.90
9668;DHT22;4872;48.316;10.650;2022-10-04T12:10:22;17.50;99.90
9668;DHT22;4872;48.316;10.650;2022-10-04T12:16:06;18.00;99.90
9668;DHT22;4872;48.316;10.650;2022-10-04T12:19:14;18.10;99.90
9668;DHT22;4872;48.316;10.650;2022-10-04T12:21:54;18.20;99.90
9668;DHT22;4872;48.316;10.650;2022-10-04T12:24:55;18.50;99.90
9668;DHT22;4872;48.316;10.650;2022-10-04T12:30:21;18.60;99.80
9668;DHT22;4872;48.316;10.650;2022-10-04T12:33:01;18.80;99.90
9668;DHT22;4872;48.316;10.650;2022-10-04T12:35:39;19.00;99.90
9668;DHT22;4872;48.316;10.650;2022-10-04T12:38:23;19.10;99.90
9668;DHT22;4872;48.316;10.650;2022-10-04T12:40:59;19.40;99.90
9668;DHT22;4872;48.316;10.650;2022-10-04T12:43:32;19.40;99.50
9668;DHT22;4872;48.316;10.650;2022-10-04T12:46:11;19.60;99.10
9668;DHT22;4872;48.316;10.650;2022-10-04T12:48:46;19.70;99.20
9668;DHT22;4872;48.316;10.650;2022-10-04T12:51:36;19.90;99.00
9668;DHT22;4872;48.316;10.650;2022-10-04T12:54:14;20.10;98.40
9668;DHT22;4872;48.316;10.650;2022-10-04T12:56:54;20.30;97.90
9668;DHT22;4872;48.316;10.650;2022-10-04T12:59:43;20.50;98.40
9668;DHT22;4872;48.316;10.650;2022-10-04T13:02:31;20.80;97.40
9668;DHT22;4872;48.316;10.650;2022-10-04T13:05:03;21.10;97.20
9668;DHT22;4872;48.316;10.650;2022-10-04T13:07:44;21.30;96.30
9668;DHT22;4872;48.316;10.650;2022-10-04T13:10:25;21.50;96.20
9668;DHT22;4872;48.316;10.650;2022-10-04T13:13:26;21.70;96.50
9668;DHT22;4872;48.316;10.650;2022-10-04T13:16:01;22.00;95.30
9668;DHT22;4872;48.316;10.650;2022-10-04T13:18:39;22.10;94.40
9668;DHT22;4872;48.316;10.650;2022-10-04T13:21:09;22.30;93.90
9668;DHT22;4872;48.316;10.650;2022-10-04T13:23:46;22.30;92.80
9668;DHT22;4872;48.316;10.650;2022-10-04T13:26:39;22.30;92.80
9668;DHT22;4872;48.316;10.650;2022-10-04T13:29:19;22.30;92.80
9668;DHT22;4872;48.316;10.650;2022-10-04T13:31:52;22.30;92.50
9668;DHT22;4872;48.316;10.650;2022-10-04T13:34:27;22.30;92.20
9668;DHT22;4872;48.316;10.650;2022-10-04T13:37:11;22.50;92.20
9668;DHT22;4872;48.316;10.650;2022-10-04T13:39:54;22.60;91.40
9668;DHT22;4872;48.316;10.650;2022-10-04T13:42:54;22.80;91.10
9668;DHT22;4872;48.316;10.650;2022-10-04T13:45:33;23.00;90.90
9668;DHT22;4872;48.316;10.650;2022-10-04T13:48:22;23.10;91.20
9668;DHT22;4872;48.316;10.650;2022-10-04T13:51:07;23.30;90.10
9668;DHT22;4872;48.316;10.650;2022-10-04T13:53:39;23.50;90.30
9668;DHT22;4872;48.316;10.650;2022-10-04T13:56:44;23.80;90.30
9668;DHT22;4872;48.316;10.650;2022-10-04T13:59:19;24.10;89.30
9668;DHT22;4872;48.316;10.650;2022-10-04T14:05:28;24.60;86.70
9668;DHT22;4872;48.316;10.650;2022-10-04T14:11:25;25.10;83.20
9668;DHT22;4872;48.316;10.650;2022-10-04T14:14:21;25.20;82.20
9668;DHT22;4872;48.316;10.650;2022-10-04T14:17:10;25.10;80.10
9668;DHT22;4872;48.316;10.650;2022-10-04T14:20:02;25.00;78.80
9668;DHT22;4872;48.316;10.650;2022-10-04T14:22:49;25.10;78.60
9668;DHT22;4872;48.316;10.650;2022-10-04T14:25:41;25.10;76.90
9668;DHT22;4872;48.316;10.650;2022-10-04T14:31:22;24.90;74.90
9668;DHT22;4872;48.316;10.650;2022-10-04T14:34:21;24.60;74.80
9668;DHT22;4872;48.316;10.650;2022-10-04T14:37:17;24.60;74.70
9668;DHT22;4872;48.316;10.650;2022-10-04T14:46:12;25.10;73.60
9668;DHT22;4872;48.316;10.650;2022-10-04T14:51:45;25.20;71.90
9668;DHT22;4872;48.316;10.650;2022-10-04T14:54:29;25.20;72.20
9668;DHT22;4872;48.316;10.650;2022-10-04T14:57:09;25.20;71.50
9668;DHT22;4872;48.316;10.650;2022-10-04T15:00:03;25.20;71.70
9668;DHT22;4872;48.316;10.650;2022-10-04T15:02:48;25.10;70.30
9668;DHT22;4872;48.316;10.650;2022-10-04T15:05:44;25.10;70.50
9668;DHT22;4872;48.316;10.650;2022-10-04T15:08:43;24.80;70.50
9668;DHT22;4872;48.316;10.650;2022-10-04T15:11:15;24.50;70.70
9668;DHT22;4872;48.316;10.650;2022-10-04T15:13:51;24.20;71.20
9668;DHT22;4872;48.316;10.650;2022-10-04T15:16:32;24.20;71.50
9668;DHT22;4872;48.316;10.650;2022-10-04T15:19:06;23.90;72.30
9668;DHT22;4872;48.316;10.650;2022-10-04T15:21:49;23.60;72.50
9668;DHT22;4872;48.316;10.650;2022-10-04T15:24:23;23.10;73.40
9668;DHT22;4872;48.316;10.650;2022-10-04T15:29:57;21.90;76.10
9668;DHT22;4872;48.316;10.650;2022-10-04T15:32:32;21.40;77.00
9668;DHT22;4872;48.316;10.650;2022-10-04T15:35:12;20.90;78.80
9668;DHT22;4872;48.316;10.650;2022-10-04T15:37:53;20.50;80.30
9668;DHT22;4872;48.316;10.650;2022-10-04T15:40:38;20.10;81.10
9668;DHT22;4872;48.316;10.650;2022-10-04T15:43:33;19.70;82.60
9668;DHT22;4872;48.316;10.650;2022-10-04T15:46:31;19.40;82.90
9668;DHT22;4872;48.316;10.650;2022-10-04T15:49:24;19.00;84.50
9668;DHT22;4872;48.316;10.650;2022-10-04T15:52:12;18.70;85.80
9668;DHT22;4872;48.316;10.650;2022-10-04T15:55:08;18.50;86.20
9668;DHT22;4872;48.316;10.650;2022-10-04T15:57:59;18.20;86.80
9668;DHT22;4872;48.316;10.650;2022-10-04T16:00:42;17.90;87.20
9668;DHT22;4872;48.316;10.650;2022-10-04T16:03:20;17.70;87.90
9668;DHT22;4872;48.316;10.650;2022-10-04T16:05:58;17.50;89.10
9668;DHT22;4872;48.316;10.650;2022-10-04T16:08:36;17.30;90.20
9668;DHT22;4872;48.316;10.650;2022-10-04T16:14:05;16.90;90.60
9668;DHT22;4872;48.316;10.650;2022-10-04T16:16:52;16.90;90.90
9668;DHT22;4872;48.316;10.650;2022-10-04T16:19:38;16.70;91.30
9668;DHT22;4872;48.316;10.650;2022-10-04T16:22:14;16.50;91.60
9668;DHT22;4872;48.316;10.650;2022-10-04T16:24:47;16.40;92.20
9668;DHT22;4872;48.316;10.650;2022-10-04T16:30:16;16.10;93.40
9668;DHT22;4872;48.316;10.650;2022-10-04T16:32:58;15.90;94.30
9668;DHT22;4872;48.316;10.650;2022-10-04T16:35:30;15.80;94.90
9668;DHT22;4872;48.316;10.650;2022-10-04T16:38:12;15.60;95.30
9668;DHT22;4872;48.316;10.650;2022-10-04T16:40:58;15.40;95.80
9668;DHT22;4872;48.316;10.650;2022-10-04T16:43:27;15.20;96.20
9668;DHT22;4872;48.316;10.650;2022-10-04T16:46:11;15.30;96.30
9668;DHT22;4872;48.316;10.650;2022-10-04T16:48:49;15.10;96.40
9668;DHT22;4872;48.316;10.650;2022-10-04T16:51:35;14.90;96.80
9668;DHT22;4872;48.316;10.650;2022-10-04T16:54:16;14.90;96.90
9668;DHT22;4872;48.316;10.650;2022-10-04T16:57:18;14.70;97.20
9668;DHT22;4872;48.316;10.650;2022-10-04T16:59:50;14.60;97.40
9668;DHT22;4872;48.316;10.650;2022-10-04T17:02:46;14.40;97.40
9668;DHT22;4872;48.316;10.650;2022-10-04T17:05:31;14.40;97.60
9668;DHT22;4872;48.316;10.650;2022-10-04T17:14:17;14.10;98.30
9668;DHT22;4872;48.316;10.650;2022-10-04T17:16:50;14.00;98.60
9668;DHT22;4872;48.316;10.650;2022-10-04T17:19:30;13.90;98.80
9668;DHT22;4872;48.316;10.650;2022-10-04T17:22:09;13.80;99.20
9668;DHT22;4872;48.316;10.650;2022-10-04T17:24:53;13.60;99.60
9668;DHT22;4872;48.316;10.650;2022-10-04T17:27:26;13.50;99.80
9668;DHT22;4872;48.316;10.650;2022-10-04T17:30:11;13.40;99.90
9668;DHT22;4872;48.316;10.650;2022-10-04T17:32:49;13.20;99.90
9668;DHT22;4872;48.316;10.650;2022-10-04T17:35:50;13.10;99.90
9668;DHT22;4872;48.316;10.650;2022-10-04T17:38:25;13.00;99.90
9668;DHT22;4872;48.316;10.650;2022-10-04T17:41:01;12.90;99.90
9668;DHT22;4872;48.316;10.650;2022-10-04T17:43:33;12.80;99.90
9668;DHT22;4872;48.316;10.650;2022-10-04T17:46:12;12.70;99.90
9668;DHT22;4872;48.316;10.650;2022-10-04T17:48:45;12.60;99.90
9668;DHT22;4872;48.316;10.650;2022-10-04T17:51:46;12.60;99.90
9668;DHT22;4872;48.316;10.650;2022-10-04T17:54:37;12.50;99.90
9668;DHT22;4872;48.316;10.650;2022-10-04T17:57:28;12.40;99.90
9668;DHT22;4872;48.316;10.650;2022-10-04T18:00:06;12.40;99.90
9668;DHT22;4872;48.316;10.650;2022-10-04T18:03:00;12.30;99.90
9668;DHT22;4872;48.316;10.650;2022-10-04T18:05:34;12.30;99.90
9668;DHT22;4872;48.316;10.650;2022-10-04T18:08:11;12.20;99.90
9668;DHT22;4872;48.316;10.650;2022-10-04T18:10:47;12.20;99.90
9668;DHT22;4872;48.316;10.650;2022-10-04T18:13:22;12.10;99.90
9668;DHT22;4872;48.316;10.650;2022-10-04T18:15:56;12.10;99.90
9668;DHT22;4872;48.316;10.650;2022-10-04T18:18:27;12.10;99.90
9668;DHT22;4872;48.316;10.650;2022-10-04T18:21:03;12.00;99.90
9668;DHT22;4872;48.316;10.650;2022-10-04T18:23:33;11.90;99.90
9668;DHT22;4872;48.316;10.650;2022-10-04T18:26:05;11.90;99.90
9668;DHT22;4872;48.316;10.650;2022-10-04T18:28:36;11.80;99.90
9668;DHT22;4872;48.316;10.650;2022-10-04T18:31:28;11.70;99.90
9668;DHT22;4872;48.316;10.650;2022-10-04T18:33:56;11.70;99.90
9668;DHT22;4872;48.316;10.650;2022-10-04T18:36:26;11.70;99.90
9668;DHT22;4872;48.316;10.650;2022-10-04T18:39:16;11.60;99.90
9668;DHT22;4872;48.316;10.650;2022-10-04T18:41:44;11.60;99.90
9668;DHT22;4872;48.316;10.650;2022-10-04T18:44:22;11.60;99.90
9668;DHT22;4872;48.316;10.650;2022-10-04T18:46:55;11.60;99.90
9668;DHT22;4872;48.316;10.650;2022-10-04T18:49:23;11.60;99.90
9668;DHT22;4872;48.316;10.650;2022-10-04T18:51:58;11.50;99.90
9668;DHT22;4872;48.316;10.650;2022-10-04T18:54:31;11.50;99.90
9668;DHT22;4872;48.316;10.650;2022-10-04T18:57:09;11.40;99.90
9668;DHT22;4872;48.316;10.650;2022-10-04T18:59:51;11.40;99.90
9668;DHT22;4872;48.316;10.650;2022-10-04T19:02:46;11.30;99.90
9668;DHT22;4872;48.316;10.650;2022-10-04T19:05:18;11.30;99.90
9668;DHT22;4872;48.316;10.650;2022-10-04T19:07:56;11.20;99.90
9668;DHT22;4872;48.316;10.650;2022-10-04T19:10:26;11.20;99.90
9668;DHT22;4872;48.316;10.650;2022-10-04T19:13:02;11.20;99.90
9668;DHT22;4872;48.316;10.650;2022-10-04T19:15:41;11.10;99.90
9668;DHT22;4872;48.316;10.650;2022-10-04T19:18:29;11.10;99.90
9668;DHT22;4872;48.316;10.650;2022-10-04T19:21:08;11.00;99.90
9668;DHT22;4872;48.316;10.650;2022-10-04T19:23:45;10.90;99.90
9668;DHT22;4872;48.316;10.650;2022-10-04T19:26:23;10.90;99.90
9668;DHT22;4872;48.316;10.650;2022-10-04T19:29:05;10.80;99.90
9668;DHT22;4872;48.316;10.650;2022-10-04T19:31:45;10.80;99.90
9668;DHT22;4872;48.316;10.650;2022-10-04T19:34:18;10.70;99.90
9668;DHT22;4872;48.316;10.650;2022-10-04T19:36:49;10.70;99.90
9668;DHT22;4872;48.316;10.650;2022-10-04T19:39:31;10.60;99.90
9668;DHT22;4872;48.316;10.650;2022-10-04T19:42:02;10.60;99.90
9668;DHT22;4872;48.316;10.650;2022-10-04T19:44:48;10.50;99.90
9668;DHT22;4872;48.316;10.650;2022-10-04T19:47:27;10.60;99.90
9668;DHT22;4872;48.316;10.650;2022-10-04T19:50:04;10.50;99.90
9668;DHT22;4872;48.316;10.650;2022-10-04T19:52:37;10.40;99.90
9668;DHT22;4872;48.316;10.650;2022-10-04T19:55:18;10.30;99.90
9668;DHT22;4872;48.316;10.650;2022-10-04T19:57:49;10.30;99.90
9668;DHT22;4872;48.316;10.650;2022-10-04T20:00:17;10.40;99.90
9668;DHT22;4872;48.316;10.650;2022-10-04T20:02:47;10.40;99.90
9668;DHT22;4872;48.316;10.650;2022-10-04T20:05:17;10.40;99.90
9668;DHT22;4872;48.316;10.650;2022-10-04T20:07:50;10.30;99.90
9668;DHT22;4872;48.316;10.650;2022-10-04T20:10:29;10.30;99.90
9668;DHT22;4872;48.316;10.650;2022-10-04T20:13:15;10.20;99.90
9668;DHT22;4872;48.316;10.650;2022-10-04T20:15:48;10.20;99.90
9668;DHT22;4872;48.316;10.650;2022-10-04T20:21:36;10.10;99.90
9668;DHT22;4872;48.316;10.650;2022-10-04T20:24:06;10.10;99.90
9668;DHT22;4872;48.316;10.650;2022-10-04T20:26:45;10.10;99.90
9668;DHT22;4872;48.316;10.650;2022-10-04T20:32:52;10.00;99.90
9668;DHT22;4872;48.316;10.650;2022-10-04T20:38:50;9.80;99.90
9668;DHT22;4872;48.316;10.650;2022-10-04T20:41:48;9.80;99.90
9668;DHT22;4872;48.316;10.650;2022-10-04T20:44:54;9.70;99.90
9668;DHT22;4872;48.316;10.650;2022-10-04T20:47:43;9.70;99.90
9668;DHT22;4872;48.316;10.650;2022-10-04T20:50:30;9.60;99.90
9668;DHT22;4872;48.316;10.650;2022-10-04T20:53:00;9.60;99.90
9668;DHT22;4872;48.316;10.650;2022-10-04T20:55:30;9.60;99.90
9668;DHT22;4872;48.316;10.650;2022-10-04T20:58:00;9.60;99.90
9668;DHT22;4872;48.316;10.650;2022-10-04T21:00:30;9.60;99.90
9668;DHT22;4872;48.316;10.650;2022-10-04T21:03:17;9.60;99.90
9668;DHT22;4872;48.316;10.650;2022-10-04T21:05:56;9.50;99.90
9668;DHT22;4872;48.316;10.650;2022-10-04T21:08:25;9.50;99.90
9668;DHT22;4872;48.316;10.650;2022-10-04T21:11:12;9.50;99.90
9668;DHT22;4872;48.316;10.650;2022-10-04T21:13:50;9.50;99.90
9668;DHT22;4872;48.316;10.650;2022-10-04T21:16:40;9.50;99.90
9668;DHT22;4872;48.316;10.650;2022-10-04T21:22:34;9.50;99.90
9668;DHT22;4872;48.316;10.650;2022-10-04T21:25:03;9.40;99.90
9668;DHT22;4872;48.316;10.650;2022-10-04T21:27:32;9.30;99.90
9668;DHT22;4872;48.316;10.650;2022-10-04T21:30:00;9.30;99.90
9668;DHT22;4872;48.316;10.650;2022-10-04T21:32:32;9.20;99.90
9668;DHT22;4872;48.316;10.650;2022-10-04T21:34:59;9.20;99.90
9668;DHT22;4872;48.316;10.650;2022-10-04T21:37:26;9.20;99.90
9668;DHT22;4872;48.316;10.650;2022-10-04T21:39:52;9.20;99.90
9668;DHT22;4872;48.316;10.650;2022-10-04T21:42:19;9.00;99.90
9668;DHT22;4872;48.316;10.650;2022-10-04T21:44:47;9.10;99.90
9668;DHT22;4872;48.316;10.650;2022-10-04T21:47:14;9.10;99.90
9668;DHT22;4872;48.316;10.650;2022-10-04T21:49:41;9.10;99.90
9668;DHT22;4872;48.316;10.650;2022-10-04T21:52:08;9.00;99.90
9668;DHT22;4872;48.316;10.650;2022-10-04T21:54:35;9.00;99.90
9668;DHT22;4872;48.316;10.650;2022-10-04T21:57:02;8.90;99.90
9668;DHT22;4872;48.316;10.650;2022-10-04T21:59:28;8.90;99.90
9668;DHT22;4872;48.316;10.650;2022-10-04T22:01:56;8.80;99.90
9668;DHT22;4872;48.316;10.650;2022-10-04T22:04:23;8.80;99.90
9668;DHT22;4872;48.316;10.650;2022-10-04T22:06:50;8.80;99.90
9668;DHT22;4872;48.316;10.650;2022-10-04T22:09:17;8.80;99.90
9668;DHT22;4872;48.316;10.650;2022-10-04T22:11:43;8.80;99.90
9668;DHT22;4872;48.316;10.650;2022-10-04T22:14:10;8.80;99.90
9668;DHT22;4872;48.316;10.650;2022-10-04T22:16:37;8.80;99.90
9668;DHT22;4872;48.316;10.650;2022-10-04T22:19:05;8.70;99.90
9668;DHT22;4872;48.316;10.650;2022-10-04T22:21:32;8.70;99.90
9668;DHT22;4872;48.316;10.650;2022-10-04T22:23:59;8.70;99.90
9668;DHT22;4872;48.316;10.650;2022-10-04T22:26:26;8.70;99.90
9668;DHT22;4872;48.316;10.650;2022-10-04T22:28:54;8.70;99.90
